sensor_id;sensor_type;location;lat;lon;timestamp;temperature;humidity
39919;DHT22;25589;51.552;13.424;2024-02-26T00:01:00;5.60;99.90
39919;DHT22;25589;51.552;13.424;2024-02-26T00:03:27;5.40;99.90
39919;DHT22;25589;51.552;13.424;2024-02-26T00:05:52;6.20;99.90
39919;DHT22;25589;51.552;13.424;2024-02-26T00:08:18;5.20;99.90
39919;DHT22;25589;51.552;13.424;2024-02-26T00:10:44;6.20;99.90
39919;DHT22;25589;51.552;13.424;2024-02-26T00:13:09;5.40;99.90
39919;DHT22;25589;51.552;13.424;2024-02-26T00:15:35;5.40;99.90
39919;DHT22;25589;51.552;13.424;2024-02-26T00:18:01;6.50;99.90
39919;DHT22;25589;51.552;13.424;2024-02-26T00:20:26;6.80;99.90
39919;DHT22;25589;51.552;13.424;2024-02-26T00:22:52;6.50;99.90
39919;DHT22;25589;51.552;13.424;2024-02-26T00:25:17;5.90;99.90
39919;DHT22;25589;51.552;13.424;2024-02-26T00:27:43;5.60;99.90
39919;DHT22;25589;51.552;13.424;2024-02-26T00:30:10;6.40;99.90
39919;DHT22;25589;51.552;13.424;2024-02-26T00:32:35;5.30;99.90
39919;DHT22;25589;51.552;13.424;2024-02-26T00:35:01;4.80;99.90
39919;DHT22;25589;51.552;13.424;2024-02-26T00:37:26;4.90;99.90
39919;DHT22;25589;51.552;13.424;2024-02-26T00:39:52;5.40;99.90
39919;DHT22;25589;51.552;13.424;2024-02-26T00:42:19;5.40;99.90
39919;DHT22;25589;51.552;13.424;2024-02-26T00:44:45;4.50;99.90
39919;DHT22;25589;51.552;13.424;2024-02-26T00:47:10;5.40;99.90
39919;DHT22;25589;51.552;13.424;2024-02-26T00:49:37;6.20;99.90
39919;DHT22;25589;51.552;13.424;2024-02-26T00:52:02;5.70;99.90
39919;DHT22;25589;51.552;13.424;2024-02-26T00:54:28;4.70;99.90
39919;DHT22;25589;51.552;13.424;2024-02-26T00:56:54;5.10;99.90
39919;DHT22;25589;51.552;13.424;2024-02-26T00:59:19;4.10;99.90
39919;DHT22;25589;51.552;13.424;2024-02-26T01:04:11;5.40;99.90
39919;DHT22;25589;51.552;13.424;2024-02-26T01:09:03;5.50;99.90
39919;DHT22;25589;51.552;13.424;2024-02-26T01:11:28;5.10;99.90
39919;DHT22;25589;51.552;13.424;2024-02-26T01:13:54;5.30;99.90
39919;DHT22;25589;51.552;13.424;2024-02-26T01:16:23;6.50;99.90
39919;DHT22;25589;51.552;13.424;2024-02-26T01:18:48;5.40;99.90
39919;DHT22;25589;51.552;13.424;2024-02-26T01:21:14;6.50;99.90
39919;DHT22;25589;51.552;13.424;2024-02-26T01:23:40;5.20;99.90
39919;DHT22;25589;51.552;13.424;2024-02-26T01:26:05;6.00;99.90
39919;DHT22;25589;51.552;13.424;2024-02-26T01:28:31;5.20;99.90
39919;DHT22;25589;51.552;13.424;2024-02-26T01:30:57;5.00;99.90
39919;DHT22;25589;51.552;13.424;2024-02-26T01:33:25;4.50;99.90
39919;DHT22;25589;51.552;13.424;2024-02-26T01:35:50;5.10;99.90
39919;DHT22;25589;51.552;13.424;2024-02-26T01:38:16;5.10;99.90
39919;DHT22;25589;51.552;13.424;2024-02-26T01:40:42;5.00;99.90
39919;DHT22;25589;51.552;13.424;2024-02-26T01:43:07;5.10;99.90
39919;DHT22;25589;51.552;13.424;2024-02-26T01:45:33;4.40;99.90
39919;DHT22;25589;51.552;13.424;2024-02-26T01:47:58;5.70;99.90
39919;DHT22;25589;51.552;13.424;2024-02-26T01:50:24;5.10;99.90
39919;DHT22;25589;51.552;13.424;2024-02-26T01:52:51;5.10;99.90
39919;DHT22;25589;51.552;13.424;2024-02-26T01:55:18;5.00;99.90
39919;DHT22;25589;51.552;13.424;2024-02-26T01:57:45;4.90;99.90
39919;DHT22;25589;51.552;13.424;2024-02-26T02:00:14;4.10;99.90
39919;DHT22;25589;51.552;13.424;2024-02-26T02:02:42;4.90;99.90
39919;DHT22;25589;51.552;13.424;2024-02-26T02:05:11;4.80;99.90
39919;DHT22;25589;51.552;13.424;2024-02-26T02:07:37;4.80;99.90
39919;DHT22;25589;51.552;13.424;2024-02-26T02:10:03;5.10;99.90
39919;DHT22;25589;51.552;13.424;2024-02-26T02:12:30;5.50;99.90
39919;DHT22;25589;51.552;13.424;2024-02-26T02:14:58;4.90;99.90
39919;DHT22;25589;51.552;13.424;2024-02-26T02:17:24;4.90;99.90
39919;DHT22;25589;51.552;13.424;2024-02-26T02:19:50;5.30;99.90
39919;DHT22;25589;51.552;13.424;2024-02-26T02:22:15;5.00;99.90
39919;DHT22;25589;51.552;13.424;2024-02-26T02:24:41;5.70;99.90
39919;DHT22;25589;51.552;13.424;2024-02-26T02:27:06;5.90;99.90
39919;DHT22;25589;51.552;13.424;2024-02-26T02:29:32;5.00;99.90
39919;DHT22;25589;51.552;13.424;2024-02-26T02:35:45;5.40;99.90
39919;DHT22;25589;51.552;13.424;2024-02-26T02:38:11;4.90;99.90
39919;DHT22;25589;51.552;13.424;2024-02-26T02:40:36;4.90;99.90
39919;DHT22;25589;51.552;13.424;2024-02-26T02:43:02;5.60;99.90
39919;DHT22;25589;51.552;13.424;2024-02-26T02:45:28;5.30;99.90
39919;DHT22;25589;51.552;13.424;2024-02-26T02:47:54;4.90;99.90
39919;DHT22;25589;51.552;13.424;2024-02-26T02:50:20;3.90;99.90
39919;DHT22;25589;51.552;13.424;2024-02-26T02:52:45;4.80;99.90
39919;DHT22;25589;51.552;13.424;2024-02-26T02:55:11;4.70;99.90
39919;DHT22;25589;51.552;13.424;2024-02-26T03:00:07;4.80;99.90
39919;DHT22;25589;51.552;13.424;2024-02-26T03:02:33;5.80;99.90
39919;DHT22;25589;51.552;13.424;2024-02-26T03:05:01;5.60;99.90
39919;DHT22;25589;51.552;13.424;2024-02-26T03:07:27;4.60;99.90
39919;DHT22;25589;51.552;13.424;2024-02-26T03:09:53;3.80;99.90
39919;DHT22;25589;51.552;13.424;2024-02-26T03:12:19;4.70;99.90
39919;DHT22;25589;51.552;13.424;2024-02-26T03:14:45;4.30;99.90
39919;DHT22;25589;51.552;13.424;2024-02-26T03:17:11;4.80;99.90
39919;DHT22;25589;51.552;13.424;2024-02-26T03:19:37;4.80;99.90
39919;DHT22;25589;51.552;13.424;2024-02-26T03:22:02;4.80;99.90
39919;DHT22;25589;51.552;13.424;2024-02-26T03:24:28;4.70;99.90
39919;DHT22;25589;51.552;13.424;2024-02-26T03:26:53;4.50;99.90
39919;DHT22;25589;51.552;13.424;2024-02-26T03:29:19;4.80;99.90
39919;DHT22;25589;51.552;13.424;2024-02-26T03:31:45;4.80;99.90
39919;DHT22;25589;51.552;13.424;2024-02-26T03:36:38;4.90;99.90
39919;DHT22;25589;51.552;13.424;2024-02-26T03:39:03;4.80;99.90
39919;DHT22;25589;51.552;13.424;2024-02-26T03:41:33;4.60;99.90
39919;DHT22;25589;51.552;13.424;2024-02-26T03:43:59;5.20;99.90
39919;DHT22;25589;51.552;13.424;2024-02-26T03:46:24;4.30;99.90
39919;DHT22;25589;51.552;13.424;2024-02-26T03:48:50;4.90;99.90
39919;DHT22;25589;51.552;13.424;2024-02-26T03:51:16;5.20;99.90
39919;DHT22;25589;51.552;13.424;2024-02-26T03:53:41;4.70;99.90
39919;DHT22;25589;51.552;13.424;2024-02-26T03:56:07;4.90;99.90
39919;DHT22;25589;51.552;13.424;2024-02-26T03:58:32;5.40;99.90
39919;DHT22;25589;51.552;13.424;2024-02-26T04:00:59;4.80;99.90
39919;DHT22;25589;51.552;13.424;2024-02-26T04:03:25;6.20;99.90
39919;DHT22;25589;51.552;13.424;2024-02-26T04:05:51;4.80;99.90
39919;DHT22;25589;51.552;13.424;2024-02-26T04:08:16;4.40;99.90
39919;DHT22;25589;51.552;13.424;2024-02-26T04:10:42;5.60;99.90
39919;DHT22;25589;51.552;13.424;2024-02-26T04:13:08;4.70;99.90
39919;DHT22;25589;51.552;13.424;2024-02-26T04:15:34;4.30;99.90
39919;DHT22;25589;51.552;13.424;2024-02-26T04:17:59;5.30;99.90
39919;DHT22;25589;51.552;13.424;2024-02-26T04:20:25;5.40;99.90
39919;DHT22;25589;51.552;13.424;2024-02-26T04:22:50;4.60;99.90
39919;DHT22;25589;51.552;13.424;2024-02-26T04:25:16;4.60;99.90
39919;DHT22;25589;51.552;13.424;2024-02-26T04:27:42;5.10;99.90
39919;DHT22;25589;51.552;13.424;2024-02-26T04:30:08;4.60;99.90
39919;DHT22;25589;51.552;13.424;2024-02-26T04:32:34;4.50;99.90
39919;DHT22;25589;51.552;13.424;2024-02-26T04:35:01;3.10;99.90
39919;DHT22;25589;51.552;13.424;2024-02-26T04:37:26;3.90;99.90
39919;DHT22;25589;51.552;13.424;2024-02-26T04:40:00;4.50;99.90
39919;DHT22;25589;51.552;13.424;2024-02-26T04:42:27;4.50;99.90
39919;DHT22;25589;51.552;13.424;2024-02-26T04:44:54;4.00;99.90
39919;DHT22;25589;51.552;13.424;2024-02-26T04:47:20;5.20;99.90
39919;DHT22;25589;51.552;13.424;2024-02-26T04:49:48;4.10;99.90
39919;DHT22;25589;51.552;13.424;2024-02-26T04:52:14;4.60;99.90
39919;DHT22;25589;51.552;13.424;2024-02-26T04:54:40;4.50;99.90
39919;DHT22;25589;51.552;13.424;2024-02-26T04:57:05;4.40;99.90
39919;DHT22;25589;51.552;13.424;2024-02-26T04:59:31;4.40;99.90
39919;DHT22;25589;51.552;13.424;2024-02-26T05:01:56;5.70;99.90
39919;DHT22;25589;51.552;13.424;2024-02-26T05:04:22;4.20;99.90
39919;DHT22;25589;51.552;13.424;2024-02-26T05:06:47;4.30;99.90
39919;DHT22;25589;51.552;13.424;2024-02-26T05:09:13;4.30;99.90
39919;DHT22;25589;51.552;13.424;2024-02-26T05:11:39;4.40;99.90
39919;DHT22;25589;51.552;13.424;2024-02-26T05:14:04;4.40;99.90
39919;DHT22;25589;51.552;13.424;2024-02-26T05:16:30;5.00;99.90
39919;DHT22;25589;51.552;13.424;2024-02-26T05:18:56;4.30;99.90
39919;DHT22;25589;51.552;13.424;2024-02-26T05:21:22;5.20;99.90
39919;DHT22;25589;51.552;13.424;2024-02-26T05:23:48;3.80;99.90
39919;DHT22;25589;51.552;13.424;2024-02-26T05:26:20;4.60;99.90
39919;DHT22;25589;51.552;13.424;2024-02-26T05:28:46;4.30;99.90
39919;DHT22;25589;51.552;13.424;2024-02-26T05:31:15;4.40;99.90
39919;DHT22;25589;51.552;13.424;2024-02-26T05:33:41;4.30;99.90
39919;DHT22;25589;51.552;13.424;2024-02-26T05:36:07;5.00;99.90
39919;DHT22;25589;51.552;13.424;2024-02-26T05:38:32;4.30;99.90
39919;DHT22;25589;51.552;13.424;2024-02-26T05:40:58;4.20;99.90
39919;DHT22;25589;51.552;13.424;2024-02-26T05:43:27;4.20;99.90
39919;DHT22;25589;51.552;13.424;2024-02-26T05:45:54;4.70;99.90
39919;DHT22;25589;51.552;13.424;2024-02-26T05:48:19;4.10;99.90
39919;DHT22;25589;51.552;13.424;2024-02-26T05:50:46;5.20;99.90
39919;DHT22;25589;51.552;13.424;2024-02-26T05:53:11;4.50;99.90
39919;DHT22;25589;51.552;13.424;2024-02-26T05:55:37;4.10;99.90
39919;DHT22;25589;51.552;13.424;2024-02-26T05:58:03;4.00;99.90
39919;DHT22;25589;51.552;13.424;2024-02-26T06:00:28;4.10;99.90
39919;DHT22;25589;51.552;13.424;2024-02-26T06:02:54;4.30;99.90
39919;DHT22;25589;51.552;13.424;2024-02-26T06:05:20;4.00;99.90
39919;DHT22;25589;51.552;13.424;2024-02-26T06:07:45;4.00;99.90
39919;DHT22;25589;51.552;13.424;2024-02-26T06:10:11;4.30;99.90
39919;DHT22;25589;51.552;13.424;2024-02-26T06:12:39;4.10;99.90
39919;DHT22;25589;51.552;13.424;2024-02-26T06:15:04;5.10;99.90
39919;DHT22;25589;51.552;13.424;2024-02-26T06:19:56;3.70;99.90
39919;DHT22;25589;51.552;13.424;2024-02-26T06:22:22;5.00;99.90
39919;DHT22;25589;51.552;13.424;2024-02-26T06:24:47;4.10;99.90
39919;DHT22;25589;51.552;13.424;2024-02-26T06:27:13;3.30;99.90
39919;DHT22;25589;51.552;13.424;2024-02-26T06:29:38;4.30;99.90
39919;DHT22;25589;51.552;13.424;2024-02-26T06:32:05;4.40;99.90
39919;DHT22;25589;51.552;13.424;2024-02-26T06:34:30;4.50;99.90
39919;DHT22;25589;51.552;13.424;2024-02-26T06:36:56;4.50;99.90
39919;DHT22;25589;51.552;13.424;2024-02-26T06:39:21;4.50;99.90
39919;DHT22;25589;51.552;13.424;2024-02-26T06:41:47;4.60;99.90
39919;DHT22;25589;51.552;13.424;2024-02-26T06:44:13;4.60;99.90
39919;DHT22;25589;51.552;13.424;2024-02-26T06:46:39;5.20;99.90
39919;DHT22;25589;51.552;13.424;2024-02-26T06:49:05;5.00;99.90
39919;DHT22;25589;51.552;13.424;2024-02-26T06:51:30;3.70;99.90
39919;DHT22;25589;51.552;13.424;2024-02-26T06:53:56;5.40;99.90
39919;DHT22;25589;51.552;13.424;2024-02-26T06:56:22;6.00;99.90
39919;DHT22;25589;51.552;13.424;2024-02-26T06:58:48;5.70;99.90
39919;DHT22;25589;51.552;13.424;2024-02-26T07:01:13;5.70;99.90
39919;DHT22;25589;51.552;13.424;2024-02-26T07:03:42;5.90;99.90
39919;DHT22;25589;51.552;13.424;2024-02-26T07:06:08;5.80;99.90
39919;DHT22;25589;51.552;13.424;2024-02-26T07:08:34;6.00;99.90
39919;DHT22;25589;51.552;13.424;2024-02-26T07:10:59;5.40;99.90
39919;DHT22;25589;51.552;13.424;2024-02-26T07:13:25;4.20;99.90
39919;DHT22;25589;51.552;13.424;2024-02-26T07:15:50;5.20;99.90
39919;DHT22;25589;51.552;13.424;2024-02-26T07:18:16;5.20;99.90
39919;DHT22;25589;51.552;13.424;2024-02-26T07:20:41;5.40;99.90
39919;DHT22;25589;51.552;13.424;2024-02-26T07:23:07;5.30;99.90
39919;DHT22;25589;51.552;13.424;2024-02-26T07:25:33;4.30;99.90
39919;DHT22;25589;51.552;13.424;2024-02-26T07:27:58;5.30;99.90
39919;DHT22;25589;51.552;13.424;2024-02-26T07:30:25;6.00;99.90
39919;DHT22;25589;51.552;13.424;2024-02-26T07:32:50;3.90;99.90
39919;DHT22;25589;51.552;13.424;2024-02-26T07:35:16;5.20;99.90
39919;DHT22;25589;51.552;13.424;2024-02-26T07:37:43;5.30;99.90
39919;DHT22;25589;51.552;13.424;2024-02-26T07:40:09;6.20;99.90
39919;DHT22;25589;51.552;13.424;2024-02-26T07:42:35;5.80;99.90
39919;DHT22;25589;51.552;13.424;2024-02-26T07:45:01;5.40;99.90
39919;DHT22;25589;51.552;13.424;2024-02-26T07:47:27;5.40;99.90
39919;DHT22;25589;51.552;13.424;2024-02-26T07:52:20;5.90;99.90
39919;DHT22;25589;51.552;13.424;2024-02-26T07:54:45;5.60;99.90
39919;DHT22;25589;51.552;13.424;2024-02-26T07:57:11;7.00;99.90
39919;DHT22;25589;51.552;13.424;2024-02-26T07:59:36;5.60;99.90
39919;DHT22;25589;51.552;13.424;2024-02-26T08:02:02;4.90;99.90
39919;DHT22;25589;51.552;13.424;2024-02-26T08:06:54;5.90;99.90
39919;DHT22;25589;51.552;13.424;2024-02-26T08:09:20;5.80;99.90
39919;DHT22;25589;51.552;13.424;2024-02-26T08:11:45;5.50;99.90
39919;DHT22;25589;51.552;13.424;2024-02-26T08:14:11;6.70;99.90
39919;DHT22;25589;51.552;13.424;2024-02-26T08:19:02;6.40;99.90
39919;DHT22;25589;51.552;13.424;2024-02-26T08:21:28;6.50;99.90
39919;DHT22;25589;51.552;13.424;2024-02-26T08:23:54;7.50;99.90
39919;DHT22;25589;51.552;13.424;2024-02-26T08:26:20;6.70;99.90
39919;DHT22;25589;51.552;13.424;2024-02-26T08:28:47;6.70;99.90
39919;DHT22;25589;51.552;13.424;2024-02-26T08:31:14;6.20;99.90
39919;DHT22;25589;51.552;13.424;2024-02-26T08:33:40;6.50;99.90
39919;DHT22;25589;51.552;13.424;2024-02-26T08:36:06;7.30;99.90
39919;DHT22;25589;51.552;13.424;2024-02-26T08:38:31;7.70;99.90
39919;DHT22;25589;51.552;13.424;2024-02-26T08:40:57;7.60;99.90
39919;DHT22;25589;51.552;13.424;2024-02-26T08:43:23;8.40;99.90
39919;DHT22;25589;51.552;13.424;2024-02-26T08:45:49;7.60;99.90
39919;DHT22;25589;51.552;13.424;2024-02-26T08:48:15;7.70;99.90
39919;DHT22;25589;51.552;13.424;2024-02-26T08:50:41;7.80;99.90
39919;DHT22;25589;51.552;13.424;2024-02-26T08:53:07;8.40;99.90
39919;DHT22;25589;51.552;13.424;2024-02-26T08:55:33;7.90;99.90
39919;DHT22;25589;51.552;13.424;2024-02-26T08:57:59;8.10;99.90
39919;DHT22;25589;51.552;13.424;2024-02-26T09:00:24;8.30;99.90
39919;DHT22;25589;51.552;13.424;2024-02-26T09:02:50;8.40;99.90
39919;DHT22;25589;51.552;13.424;2024-02-26T09:05:15;9.10;99.90
39919;DHT22;25589;51.552;13.424;2024-02-26T09:07:41;9.00;99.90
39919;DHT22;25589;51.552;13.424;2024-02-26T09:10:07;9.00;99.90
39919;DHT22;25589;51.552;13.424;2024-02-26T09:12:36;8.90;99.90
39919;DHT22;25589;51.552;13.424;2024-02-26T09:15:02;9.10;99.90
39919;DHT22;25589;51.552;13.424;2024-02-26T09:17:28;9.60;99.90
39919;DHT22;25589;51.552;13.424;2024-02-26T09:19:54;9.20;99.90
39919;DHT22;25589;51.552;13.424;2024-02-26T09:22:19;9.60;99.90
39919;DHT22;25589;51.552;13.424;2024-02-26T09:24:45;9.60;99.90
39919;DHT22;25589;51.552;13.424;2024-02-26T09:27:10;9.80;99.90
39919;DHT22;25589;51.552;13.424;2024-02-26T09:29:36;9.80;99.90
39919;DHT22;25589;51.552;13.424;2024-02-26T09:32:02;9.80;99.90
39919;DHT22;25589;51.552;13.424;2024-02-26T09:34:28;9.90;99.90
39919;DHT22;25589;51.552;13.424;2024-02-26T09:36:53;10.10;99.90
39919;DHT22;25589;51.552;13.424;2024-02-26T09:39:19;10.10;99.90
39919;DHT22;25589;51.552;13.424;2024-02-26T09:41:47;10.30;99.90
39919;DHT22;25589;51.552;13.424;2024-02-26T09:44:18;10.40;99.90
39919;DHT22;25589;51.552;13.424;2024-02-26T09:46:45;11.40;99.90
39919;DHT22;25589;51.552;13.424;2024-02-26T09:51:38;10.60;99.90
39919;DHT22;25589;51.552;13.424;2024-02-26T09:54:03;11.40;99.90
39919;DHT22;25589;51.552;13.424;2024-02-26T09:56:29;11.20;99.90
39919;DHT22;25589;51.552;13.424;2024-02-26T09:58:58;11.30;99.90
39919;DHT22;25589;51.552;13.424;2024-02-26T10:01:23;11.40;99.90
39919;DHT22;25589;51.552;13.424;2024-02-26T10:06:21;12.30;99.90
39919;DHT22;25589;51.552;13.424;2024-02-26T10:08:47;11.60;99.90
39919;DHT22;25589;51.552;13.424;2024-02-26T10:11:14;11.70;99.90
39919;DHT22;25589;51.552;13.424;2024-02-26T10:13:40;11.80;99.90
39919;DHT22;25589;51.552;13.424;2024-02-26T10:16:07;12.00;99.90
39919;DHT22;25589;51.552;13.424;2024-02-26T10:21:16;12.30;99.90
39919;DHT22;25589;51.552;13.424;2024-02-26T10:23:43;12.20;99.90
39919;DHT22;25589;51.552;13.424;2024-02-26T10:26:10;13.40;99.90
39919;DHT22;25589;51.552;13.424;2024-02-26T10:28:37;12.60;99.90
39919;DHT22;25589;51.552;13.424;2024-02-26T10:31:03;12.50;99.90
39919;DHT22;25589;51.552;13.424;2024-02-26T10:33:29;12.60;99.90
39919;DHT22;25589;51.552;13.424;2024-02-26T10:35:54;12.70;99.90
39919;DHT22;25589;51.552;13.424;2024-02-26T10:38:20;12.90;99.90
39919;DHT22;25589;51.552;13.424;2024-02-26T10:40:48;12.90;99.90
39919;DHT22;25589;51.552;13.424;2024-02-26T10:43:14;12.90;99.90
39919;DHT22;25589;51.552;13.424;2024-02-26T10:45:42;13.10;99.90
39919;DHT22;25589;51.552;13.424;2024-02-26T10:48:13;12.80;99.90
39919;DHT22;25589;51.552;13.424;2024-02-26T10:50:40;13.20;99.90
39919;DHT22;25589;51.552;13.424;2024-02-26T10:53:15;13.40;99.90
39919;DHT22;25589;51.552;13.424;2024-02-26T10:55:43;13.70;99.90
39919;DHT22;25589;51.552;13.424;2024-02-26T10:58:12;13.90;99.90
39919;DHT22;25589;51.552;13.424;2024-02-26T11:00:39;14.10;99.90
39919;DHT22;25589;51.552;13.424;2024-02-26T11:03:06;14.10;99.90
39919;DHT22;25589;51.552;13.424;2024-02-26T11:05:33;14.40;99.90
39919;DHT22;25589;51.552;13.424;2024-02-26T11:08:00;14.00;99.90
39919;DHT22;25589;51.552;13.424;2024-02-26T11:10:27;14.40;99.90
39919;DHT22;25589;51.552;13.424;2024-02-26T11:12:56;14.50;99.90
39919;DHT22;25589;51.552;13.424;2024-02-26T11:15:23;14.30;99.90
39919;DHT22;25589;51.552;13.424;2024-02-26T11:17:52;14.60;99.90
39919;DHT22;25589;51.552;13.424;2024-02-26T11:20:19;14.60;99.90
39919;DHT22;25589;51.552;13.424;2024-02-26T11:22:45;14.60;99.90
39919;DHT22;25589;51.552;13.424;2024-02-26T11:25:11;14.70;99.90
39919;DHT22;25589;51.552;13.424;2024-02-26T11:27:56;14.60;99.90
39919;DHT22;25589;51.552;13.424;2024-02-26T11:30:25;14.80;99.90
39919;DHT22;25589;51.552;13.424;2024-02-26T11:32:52;15.30;99.90
39919;DHT22;25589;51.552;13.424;2024-02-26T11:35:18;15.00;99.90
39919;DHT22;25589;51.552;13.424;2024-02-26T11:37:54;15.50;99.90
39919;DHT22;25589;51.552;13.424;2024-02-26T11:40:23;14.80;99.90
39919;DHT22;25589;51.552;13.424;2024-02-26T11:42:49;15.20;99.90
39919;DHT22;25589;51.552;13.424;2024-02-26T11:45:38;15.20;99.90
39919;DHT22;25589;51.552;13.424;2024-02-26T11:48:20;14.70;99.90
39919;DHT22;25589;51.552;13.424;2024-02-26T11:50:47;15.20;99.90
39919;DHT22;25589;51.552;13.424;2024-02-26T11:55:45;15.40;99.90
39919;DHT22;25589;51.552;13.424;2024-02-26T11:58:10;15.40;99.90
39919;DHT22;25589;51.552;13.424;2024-02-26T12:00:36;15.10;99.90
39919;DHT22;25589;51.552;13.424;2024-02-26T12:03:03;15.70;99.90
39919;DHT22;25589;51.552;13.424;2024-02-26T12:05:33;15.50;99.90
39919;DHT22;25589;51.552;13.424;2024-02-26T12:08:02;15.40;99.90
39919;DHT22;25589;51.552;13.424;2024-02-26T12:10:39;15.50;99.90
39919;DHT22;25589;51.552;13.424;2024-02-26T12:13:10;15.60;99.90
39919;DHT22;25589;51.552;13.424;2024-02-26T12:15:45;15.70;99.90
39919;DHT22;25589;51.552;13.424;2024-02-26T12:18:16;15.50;99.90
39919;DHT22;25589;51.552;13.424;2024-02-26T12:20:42;16.20;99.90
39919;DHT22;25589;51.552;13.424;2024-02-26T12:23:14;15.60;99.90
39919;DHT22;25589;51.552;13.424;2024-02-26T12:25:40;15.50;99.90
39919;DHT22;25589;51.552;13.424;2024-02-26T12:28:07;15.80;99.90
39919;DHT22;25589;51.552;13.424;2024-02-26T12:30:33;15.60;99.90
39919;DHT22;25589;51.552;13.424;2024-02-26T12:33:00;15.90;99.90
39919;DHT22;25589;51.552;13.424;2024-02-26T12:35:27;16.10;99.90
39919;DHT22;25589;51.552;13.424;2024-02-26T12:37:54;15.60;99.90
39919;DHT22;25589;51.552;13.424;2024-02-26T12:40:20;15.60;99.90
39919;DHT22;25589;51.552;13.424;2024-02-26T12:42:46;15.60;99.90
39919;DHT22;25589;51.552;13.424;2024-02-26T12:45:13;15.90;99.90
39919;DHT22;25589;51.552;13.424;2024-02-26T12:47:42;16.10;99.90
39919;DHT22;25589;51.552;13.424;2024-02-26T12:50:09;15.40;99.90
39919;DHT22;25589;51.552;13.424;2024-02-26T12:52:37;15.00;99.90
39919;DHT22;25589;51.552;13.424;2024-02-26T12:57:31;15.40;99.90
39919;DHT22;25589;51.552;13.424;2024-02-26T12:59:59;15.30;99.90
39919;DHT22;25589;51.552;13.424;2024-02-26T13:02:25;15.60;99.90
39919;DHT22;25589;51.552;13.424;2024-02-26T13:04:50;15.50;99.90
39919;DHT22;25589;51.552;13.424;2024-02-26T13:07:16;15.40;99.90
39919;DHT22;25589;51.552;13.424;2024-02-26T13:09:43;15.30;99.90
39919;DHT22;25589;51.552;13.424;2024-02-26T13:12:09;15.80;99.90
39919;DHT22;25589;51.552;13.424;2024-02-26T13:14:34;15.30;99.90
39919;DHT22;25589;51.552;13.424;2024-02-26T13:17:01;15.20;99.90
39919;DHT22;25589;51.552;13.424;2024-02-26T13:19:27;15.10;99.90
39919;DHT22;25589;51.552;13.424;2024-02-26T13:21:55;14.90;99.90
39919;DHT22;25589;51.552;13.424;2024-02-26T13:24:22;14.80;99.90
39919;DHT22;25589;51.552;13.424;2024-02-26T13:26:56;14.90;99.90
39919;DHT22;25589;51.552;13.424;2024-02-26T13:29:22;15.60;99.90
39919;DHT22;25589;51.552;13.424;2024-02-26T13:31:47;15.10;99.90
39919;DHT22;25589;51.552;13.424;2024-02-26T13:34:23;15.00;99.90
39919;DHT22;25589;51.552;13.424;2024-02-26T13:36:51;14.60;99.90
39919;DHT22;25589;51.552;13.424;2024-02-26T13:39:27;14.90;99.90
39919;DHT22;25589;51.552;13.424;2024-02-26T13:41:53;14.90;99.90
39919;DHT22;25589;51.552;13.424;2024-02-26T13:44:20;14.80;99.90
39919;DHT22;25589;51.552;13.424;2024-02-26T13:46:47;15.10;99.90
39919;DHT22;25589;51.552;13.424;2024-02-26T13:49:12;15.10;99.90
39919;DHT22;25589;51.552;13.424;2024-02-26T13:51:41;15.00;99.90
39919;DHT22;25589;51.552;13.424;2024-02-26T13:54:07;14.90;99.90
39919;DHT22;25589;51.552;13.424;2024-02-26T13:56:34;14.70;99.90
39919;DHT22;25589;51.552;13.424;2024-02-26T13:59:00;14.70;99.90
39919;DHT22;25589;51.552;13.424;2024-02-26T14:01:25;14.70;99.90
39919;DHT22;25589;51.552;13.424;2024-02-26T14:03:51;14.80;99.90
39919;DHT22;25589;51.552;13.424;2024-02-26T14:06:20;14.80;99.90
39919;DHT22;25589;51.552;13.424;2024-02-26T14:08:46;14.80;99.90
39919;DHT22;25589;51.552;13.424;2024-02-26T14:11:11;14.80;99.90
39919;DHT22;25589;51.552;13.424;2024-02-26T14:13:37;14.80;99.90
39919;DHT22;25589;51.552;13.424;2024-02-26T14:16:02;14.80;99.90
39919;DHT22;25589;51.552;13.424;2024-02-26T14:18:28;14.60;99.90
39919;DHT22;25589;51.552;13.424;2024-02-26T14:20:53;14.40;99.90
39919;DHT22;25589;51.552;13.424;2024-02-26T14:23:19;14.60;99.90
39919;DHT22;25589;51.552;13.424;2024-02-26T14:25:45;14.50;99.90
39919;DHT22;25589;51.552;13.424;2024-02-26T14:28:11;14.40;99.90
39919;DHT22;25589;51.552;13.424;2024-02-26T14:30:36;14.50;99.90
39919;DHT22;25589;51.552;13.424;2024-02-26T14:33:02;14.70;99.90
39919;DHT22;25589;51.552;13.424;2024-02-26T14:35:28;14.50;99.90
39919;DHT22;25589;51.552;13.424;2024-02-26T14:37:54;14.70;99.90
39919;DHT22;25589;51.552;13.424;2024-02-26T14:40:20;14.00;99.90
39919;DHT22;25589;51.552;13.424;2024-02-26T14:42:46;14.50;99.90
39919;DHT22;25589;51.552;13.424;2024-02-26T14:45:12;14.80;99.90
39919;DHT22;25589;51.552;13.424;2024-02-26T14:47:37;14.70;99.90
39919;DHT22;25589;51.552;13.424;2024-02-26T14:50:04;14.70;99.90
39919;DHT22;25589;51.552;13.424;2024-02-26T14:52:30;14.70;99.90
39919;DHT22;25589;51.552;13.424;2024-02-26T14:54:56;14.90;99.90
39919;DHT22;25589;51.552;13.424;2024-02-26T14:57:23;14.40;99.90
39919;DHT22;25589;51.552;13.424;2024-02-26T14:59:49;15.00;99.90
39919;DHT22;25589;51.552;13.424;2024-02-26T15:02:16;11.90;99.90
39919;DHT22;25589;51.552;13.424;2024-02-26T15:04:42;14.20;99.90
39919;DHT22;25589;51.552;13.424;2024-02-26T15:07:08;14.80;99.90
39919;DHT22;25589;51.552;13.424;2024-02-26T15:09:34;14.70;99.90
39919;DHT22;25589;51.552;13.424;2024-02-26T15:12:00;14.70;99.90
39919;DHT22;25589;51.552;13.424;2024-02-26T15:14:25;14.70;99.90
39919;DHT22;25589;51.552;13.424;2024-02-26T15:16:52;14.80;99.90
39919;DHT22;25589;51.552;13.424;2024-02-26T15:19:17;14.90;99.90
39919;DHT22;25589;51.552;13.424;2024-02-26T15:21:47;14.80;99.90
39919;DHT22;25589;51.552;13.424;2024-02-26T15:24:12;14.30;99.90
39919;DHT22;25589;51.552;13.424;2024-02-26T15:26:38;15.00;99.90
39919;DHT22;25589;51.552;13.424;2024-02-26T15:29:06;14.80;99.90
39919;DHT22;25589;51.552;13.424;2024-02-26T15:31:31;14.30;99.90
39919;DHT22;25589;51.552;13.424;2024-02-26T15:33:57;14.90;99.90
39919;DHT22;25589;51.552;13.424;2024-02-26T15:36:23;14.60;99.90
39919;DHT22;25589;51.552;13.424;2024-02-26T15:38:48;14.90;99.90
39919;DHT22;25589;51.552;13.424;2024-02-26T15:41:14;14.90;99.90
39919;DHT22;25589;51.552;13.424;2024-02-26T15:43:40;14.90;99.90
39919;DHT22;25589;51.552;13.424;2024-02-26T15:46:06;17.10;99.90
39919;DHT22;25589;51.552;13.424;2024-02-26T15:48:32;15.10;99.90
39919;DHT22;25589;51.552;13.424;2024-02-26T15:50:58;15.20;99.90
39919;DHT22;25589;51.552;13.424;2024-02-26T15:53:24;15.10;99.90
39919;DHT22;25589;51.552;13.424;2024-02-26T15:55:49;15.20;99.90